Time;durP1;ratioP1;P1;durP2;ratioP2;P2;SDS_P1;SDS_P2;PMS_P1;PMS_P2;Temp;Humidity;BMP_temperature;BMP_pressure;BME280_temperature;BME280_humidity;BME280_pressure;Samples;Min_cycle;Max_cycle;Signal;HPM_P1;HPM_P2
2021/11/17 02:27:56;;;;;;;;;40.25;35.00;;;;;-147.17;100.00;49964.09;5035179;28;51181;-60
2021/11/17 02:30:49;;;;;;;;;47.50;37.00;;;;;-147.17;100.00;49960.16;5022647;28;53726;-60
2021/11/17 02:33:45;;;;;;;;;49.00;40.50;;;;;-147.17;100.00;49938.50;5023767;28;51081;-60
2021/11/17 02:36:16;;;;;;;;;52.00;39.25;;;;;-147.17;100.00;49968.03;5030261;28;51106;-59
2021/11/17 02:38:54;;;;;;;;;50.50;40.75;;;;;-147.17;100.00;49973.94;5014087;28;51114;-60
2021/11/17 02:41:29;;;;;;;;;52.00;40.50;;;;;-147.17;100.00;49946.38;5012984;28;51848;-59
2021/11/17 02:44:20;;;;;;;;;56.25;43.50;;;;;-147.17;100.00;49958.19;5017164;28;51230;-59
2021/11/17 02:47:05;;;;;;;;;53.50;42.50;;;;;-147.17;100.00;49983.78;5022515;28;51075;-60
2021/11/17 02:49:56;;;;;;;;;44.50;39.25;;;;;-147.17;100.00;49944.41;5031046;28;51035;-59
2021/11/17 02:52:27;;;;;;;;;53.75;41.25;;;;;-147.17;100.00;49966.06;5032480;28;53222;-60
2021/11/17 02:55:01;;;;;;;;;53.75;41.50;;;;;-147.17;100.00;49973.94;5023767;28;50967;-59
2021/11/17 02:57:52;;;;;;;;;50.25;40.25;;;;;-147.17;100.00;49985.75;5013704;28;51272;-59
2021/11/17 03:00:24;;;;;;;;;45.25;40.25;;;;;-147.17;100.00;49977.88;5028890;28;51191;-59
2021/11/17 03:03:30;;;;;;;;;41.50;34.25;;;;;-147.17;100.00;49952.28;5013292;28;51863;-60
2021/11/17 03:06:06;;;;;;;;;53.50;41.75;;;;;-147.17;100.00;49934.56;5024553;28;50948;-59
2021/11/17 03:09:28;;;;;;;;;52.00;41.50;;;;;-147.17;100.00;49954.25;5016019;28;50903;-59
2021/11/17 03:12:14;;;;;;;;;55.00;42.25;;;;;-147.17;100.00;49977.88;4989475;28;51273;-60
2021/11/17 03:15:07;;;;;;;;;51.25;42.00;;;;;-147.17;100.00;49958.19;4988938;28;52031;-58
2021/11/17 03:17:42;;;;;;;;;47.75;39.75;;;;;-147.17;100.00;49950.31;5029143;28;51349;-60
2021/11/17 03:20:10;;;;;;;;;48.50;42.00;;;;;-147.17;100.00;49938.50;5032294;28;51347;-60
2021/11/17 03:23:01;;;;;;;;;54.00;42.50;;;;;-147.17;100.00;49932.59;5032815;28;51450;-59
2021/11/17 03:25:35;;;;;;;;;52.75;42.50;;;;;-147.17;100.00;49958.19;5030045;28;52084;-58
2021/11/17 03:28:34;;;;;;;;;48.25;40.00;;;;;-147.17;100.00;49938.50;5025915;28;51018;-58
2021/11/17 03:31:04;;;;;;;;;45.50;39.25;;;;;-147.17;100.00;49910.97;5030995;28;51228;-59
2021/11/17 03:33:48;;;;;;;;;47.00;40.25;;;;;-147.17;100.00;49930.63;5024119;28;51084;-59
2021/11/17 03:36:19;;;;;;;;;50.75;41.75;;;;;-147.17;100.00;49903.09;5025545;28;51031;-59
2021/11/17 03:38:57;;;;;;;;;50.50;41.00;;;;;-147.17;100.00;49920.81;5032896;28;50904;-59
2021/11/17 03:41:41;;;;;;;;;47.75;40.00;;;;;-147.17;100.00;49934.56;5028148;28;50867;-59
2021/11/17 03:44:16;;;;;;;;;49.75;41.25;;;;;-147.17;100.00;49950.31;5016520;28;50995;-59
2021/11/17 03:47:00;;;;;;;;;51.00;40.25;;;;;-147.17;100.00;49922.78;5027709;28;51885;-60
2021/11/17 03:49:54;;;;;;;;;47.25;40.00;;;;;-147.17;100.00;49946.38;5028545;28;51174;-59
2021/11/17 03:52:23;;;;;;;;;51.50;42.00;;;;;-147.17;100.00;49940.47;5024131;28;51217;-59
2021/11/17 03:55:10;;;;;;;;;54.50;41.75;;;;;-147.17;100.00;49942.44;5013453;28;51465;-58
2021/11/17 03:57:56;;;;;;;;;53.50;40.75;;;;;-147.17;100.00;49938.50;5029401;28;51988;-58
2021/11/17 04:00:49;;;;;;;;;54.25;42.75;;;;;-147.17;100.00;49934.56;5021002;28;51186;-60
2021/11/17 04:03:23;;;;;;;;;47.50;38.50;;;;;-147.17;100.00;49948.34;5016009;28;51075;-60
2021/11/17 04:05:54;;;;;;;;;47.50;39.50;;;;;-147.17;100.00;49928.66;5032063;28;51106;-59
2021/11/17 04:08:49;;;;;;;;;51.25;41.00;;;;;-147.17;100.00;49914.91;5032179;28;52047;-58
2021/11/17 04:11:20;;;;;;;;;46.00;38.25;;;;;-147.17;100.00;49968.03;5018854;28;51114;-58
2021/11/17 04:14:04;;;;;;;;;48.75;40.75;;;;;-147.17;100.00;49962.13;5016015;28;50968;-59
2021/11/17 04:17:03;;;;;;;;;50.75;40.75;;;;;-147.17;100.00;49960.16;5027104;28;51075;-58
2021/11/17 04:19:47;;;;;;;;;47.25;39.25;;;;;-147.17;100.00;49932.59;5028715;28;51328;-60
2021/11/17 04:22:31;;;;;;;;;47.75;38.75;;;;;-147.17;100.00;49942.44;5026282;28;51006;-58
2021/11/17 04:24:59;;;;;;;;;46.75;39.00;;;;;-147.17;100.00;49956.22;5034559;28;51205;-62
2021/11/17 04:27:24;;;;;;;;;42.25;37.00;;;;;-147.17;100.00;49934.56;5036862;28;51103;-60
2021/11/17 04:30:15;;;;;;;;;48.50;40.00;;;;;-147.17;100.00;49926.69;5050828;28;53538;-61
2021/11/17 04:33:00;;;;;;;;;46.25;39.50;;;;;-147.17;100.00;49995.59;5020426;28;51105;-63
2021/11/17 04:35:51;;;;;;;;;46.00;39.25;;;;;-147.17;100.00;49954.25;5019552;28;51036;-60
2021/11/17 04:38:19;;;;;;;;;47.25;40.00;;;;;-147.17;100.00;49950.31;5034382;28;51233;-59
2021/11/17 04:41:22;;;;;;;;;41.75;36.50;;;;;-147.17;100.00;49940.47;5031499;28;52518;-59
2021/11/17 04:44:25;;;;;;;;;39.75;36.50;;;;;-147.17;100.00;49895.22;5015763;28;50917;-60
2021/11/17 04:47:35;;;;;;;;;48.75;37.00;;;;;-147.17;100.00;49918.84;4997393;28;51119;-60
2021/11/17 04:50:41;;;;;;;;;43.50;38.00;;;;;-147.17;100.00;49871.59;5032564;28;52085;-59
2021/11/17 04:53:33;;;;;;;;;38.50;35.00;;;;;-147.17;100.00;49887.34;5024095;28;51773;-60
2021/11/17 04:56:07;;;;;;;;;47.25;37.25;;;;;-147.17;100.00;49863.72;5018375;28;51492;-59
2021/11/17 04:58:54;;;;;;;;;40.25;34.50;;;;;-147.17;100.00;49889.31;5033238;28;51028;-60
2021/11/17 05:02:21;;;;;;;;;41.75;37.00;;;;;-147.17;100.00;49887.34;5031034;28;51112;-59
2021/11/17 05:04:59;;;;;;;;;30.00;29.25;;;;;-147.17;100.00;49899.16;4943477;28;54060;-60
2021/11/17 05:07:45;;;;;;;;;47.75;39.75;;;;;-147.17;100.00;49899.16;5027284;28;50940;-61
2021/11/17 05:10:32;;;;;;;;;42.50;37.00;;;;;-147.17;100.00;49887.34;5029758;28;51120;-61
2021/11/17 05:13:09;;;;;;;;;45.75;38.00;;;;;-147.17;100.00;49873.56;5034909;28;51314;-59
2021/11/17 05:15:38;;;;;;;;;36.50;34.00;;;;;-147.17;100.00;49883.41;5032912;28;51718;-60
2021/11/17 05:18:12;;;;;;;;;39.50;31.50;;;;;-147.17;100.00;49879.47;5019427;28;51133;-59
2021/11/17 05:21:10;;;;;;;;;42.50;35.75;;;;;-147.17;100.00;49828.28;5030608;28;51165;-60
2021/11/17 05:23:44;;;;;;;;;32.75;30.25;;;;;-147.17;100.00;49859.78;5008973;28;51088;-60
2021/11/17 05:26:28;;;;;;;;;41.25;34.75;;;;;-147.17;100.00;49822.38;5033570;28;50913;-60
2021/11/17 05:29:12;;;;;;;;;36.75;34.50;;;;;-147.17;100.00;49875.53;5036097;28;51014;-59
2021/11/17 05:31:40;;;;;;;;;29.75;28.50;;;;;-147.17;100.00;49816.47;5021295;28;51196;-61
2021/11/17 05:34:32;;;;;;;;;28.25;26.25;;;;;-147.17;100.00;49844.03;5033092;28;51324;-60
2021/11/17 05:37:03;;;;;;;;;37.75;33.50;;;;;-147.17;100.00;49853.88;5005595;28;52399;-61
2021/11/17 05:39:56;;;;;;;;;37.25;34.75;;;;;-147.17;100.00;49816.47;5014527;28;51051;-60
2021/11/17 05:43:04;;;;;;;;;27.50;24.50;;;;;-147.17;100.00;49867.66;5017262;28;51148;-61
2021/11/17 05:45:48;;;;;;;;;32.75;28.25;;;;;-147.17;100.00;49861.75;4999949;28;51153;-60
2021/11/17 05:48:19;;;;;;;;;35.00;33.00;;;;;-147.17;100.00;49849.94;5045020;28;52697;-61
2021/11/17 05:50:57;;;;;;;;;30.50;28.25;;;;;-147.17;100.00;49861.75;5028022;28;52031;-58
2021/11/17 05:53:23;;;;;;;;;36.00;32.00;;;;;-147.17;100.00;49846.00;5033809;28;51108;-59
2021/11/17 05:56:15;;;;;;;;;35.25;33.25;;;;;-147.17;100.00;49853.88;5027589;28;51379;-59
2021/11/17 05:59:13;;;;;;;;;33.50;32.00;;;;;-147.17;100.00;49840.09;5024164;28;52914;-59
2021/11/17 06:01:56;;;;;;;;;32.75;28.00;;;;;-147.17;100.00;49851.91;4996543;28;51180;-59
2021/11/17 06:04:21;;;;;;;;;36.25;34.00;;;;;-147.17;100.00;49865.69;5014356;28;50994;-59
2021/11/17 06:06:47;;;;;;;;;33.00;30.25;;;;;-147.17;100.00;49826.31;5028928;28;51244;-59
2021/11/17 06:09:12;;;;;;;;;38.25;34.00;;;;;-147.17;100.00;49847.97;5014971;28;53544;-59
2021/11/17 06:11:43;;;;;;;;;32.00;27.75;;;;;-147.17;100.00;49855.84;5030209;28;51263;-61
2021/11/17 06:14:15;;;;;;;;;34.75;28.00;;;;;-147.17;100.00;49840.09;5014214;28;51277;-59
2021/11/17 06:16:46;;;;;;;;;30.25;29.75;;;;;-147.17;100.00;49865.69;5018090;28;51209;-59
2021/11/17 06:19:13;;;;;;;;;37.00;33.25;;;;;-147.17;100.00;49867.66;5029859;28;52952;-58
2021/11/17 06:21:41;;;;;;;;;40.25;34.75;;;;;-147.17;100.00;49887.34;5016475;28;51145;-59
2021/11/17 06:24:08;;;;;;;;;34.50;28.00;;;;;-147.17;100.00;49883.41;5023105;28;51011;-59
2021/11/17 06:26:40;;;;;;;;;35.00;32.75;;;;;-147.17;100.00;49859.78;5031891;28;51183;-59
2021/11/17 06:29:39;;;;;;;;;31.25;26.00;;;;;-147.17;100.00;49873.56;5034161;28;52135;-60
2021/11/17 06:32:05;;;;;;;;;31.75;29.75;;;;;-147.17;100.00;49832.22;5030792;28;50927;-60
2021/11/17 06:34:37;;;;;;;;;36.00;32.25;;;;;-147.17;100.00;49859.78;5033437;28;51096;-59
2021/11/17 06:37:08;;;;;;;;;42.25;36.00;;;;;-147.17;100.00;49832.22;5021029;28;51114;-59
2021/11/17 06:39:36;;;;;;;;;37.50;32.75;;;;;-147.17;100.00;49859.78;5012972;28;51381;-59
2021/11/17 06:42:04;;;;;;;;;35.75;33.75;;;;;-147.17;100.00;49844.03;5013463;28;51143;-60
2021/11/17 06:44:30;;;;;;;;;36.25;33.50;;;;;-147.17;100.00;49879.47;5018592;28;51242;-59
2021/11/17 06:46:55;;;;;;;;;35.75;31.75;;;;;-147.17;100.00;49867.66;5023474;28;50870;-60
2021/11/17 06:49:21;;;;;;;;;36.75;32.25;;;;;-147.17;100.00;49861.75;5013069;28;50982;-60
2021/11/17 06:51:47;;;;;;;;;33.50;30.00;;;;;-147.17;100.00;49871.59;5023897;28;51255;-59
2021/11/17 06:54:13;;;;;;;;;32.50;29.75;;;;;-147.17;100.00;49867.66;5027647;28;51215;-60
2021/11/17 06:56:38;;;;;;;;;33.00;30.50;;;;;-147.17;100.00;49883.41;5031320;28;51312;-60
2021/11/17 06:59:04;;;;;;;;;31.00;29.00;;;;;-147.17;100.00;49849.94;5032447;28;51177;-60
2021/11/17 07:01:29;;;;;;;;;31.00;27.75;;;;;-147.17;100.00;49865.69;5032436;28;51093;-60
2021/11/17 07:03:55;;;;;;;;;36.50;32.50;;;;;-147.17;100.00;49863.72;5031148;28;51278;-60
2021/11/17 07:06:20;;;;;;;;;36.00;32.50;;;;;-147.17;100.00;49873.56;5024038;28;51375;-60
2021/11/17 07:08:46;;;;;;;;;37.00;31.50;;;;;-147.17;100.00;49877.50;5011443;28;51892;-59
2021/11/17 07:11:11;;;;;;;;;38.75;30.00;;;;;-147.17;100.00;49889.31;5026659;28;51072;-59
2021/11/17 07:13:37;;;;;;;;;35.00;32.50;;;;;-147.17;100.00;49871.59;5035757;28;50987;-59
2021/11/17 07:16:03;;;;;;;;;29.00;25.75;;;;;-147.17;100.00;49871.59;5032753;28;50961;-58
2021/11/17 07:18:30;;;;;;;;;33.75;30.25;;;;;-147.17;100.00;49847.97;5032335;28;52844;-60
2021/11/17 07:20:55;;;;;;;;;33.00;28.75;;;;;-147.17;100.00;49836.16;5031209;28;51267;-60
2021/11/17 07:23:22;;;;;;;;;30.25;26.75;;;;;-147.17;100.00;49861.75;5028854;28;51156;-59
2021/11/17 07:25:48;;;;;;;;;27.25;25.00;;;;;-147.17;100.00;49816.47;5031552;28;51097;-61
2021/11/17 07:28:14;;;;;;;;;32.25;29.00;;;;;-147.17;100.00;49838.13;5032579;28;51092;-60
2021/11/17 07:30:41;;;;;;;;;26.75;24.25;;;;;-147.17;100.00;49853.88;5029371;28;51126;-60
2021/11/17 07:33:07;;;;;;;;;34.50;32.00;;;;;-147.17;100.00;49840.09;5028750;28;51408;-61
2021/11/17 07:35:36;;;;;;;;;30.00;27.75;;;;;-147.17;100.00;49838.13;5011606;28;51283;-60
2021/11/17 07:38:04;;;;;;;;;34.00;29.00;;;;;-147.17;100.00;49800.72;5021311;28;51889;-60
2021/11/17 07:40:36;;;;;;;;;33.25;28.75;;;;;-147.17;100.00;49836.16;5031280;28;51030;-60
2021/11/17 07:43:07;;;;;;;;;33.75;26.00;;;;;-147.17;100.00;49812.53;5031316;28;51112;-61
2021/11/17 07:45:33;;;;;;;;;35.50;29.25;;;;;-147.17;100.00;49836.16;5031782;28;51232;-61
2021/11/17 07:47:59;;;;;;;;;28.75;23.25;;;;;-147.17;100.00;49842.06;5029665;28;51641;-61
2021/11/17 07:50:25;;;;;;;;;32.25;29.75;;;;;-147.17;100.00;49802.69;5030775;28;51001;-60
2021/11/17 07:52:50;;;;;;;;;35.00;33.75;;;;;-147.17;100.00;49834.19;5032066;28;51110;-60
2021/11/17 07:55:18;;;;;;;;;31.75;28.50;;;;;-147.17;100.00;49830.25;5031881;28;51285;-60
2021/11/17 07:57:46;;;;;;;;;31.00;30.00;;;;;-147.17;100.00;49820.41;5030559;28;51898;-62
2021/11/17 08:00:19;;;;;;;;;34.25;32.00;;;;;-147.17;100.00;49836.16;5025974;28;51153;-62
2021/11/17 08:02:45;;;;;;;;;32.25;32.25;;;;;-147.17;100.00;49834.19;5013833;28;51133;-60
2021/11/17 08:05:12;;;;;;;;;33.75;30.00;;;;;-147.17;100.00;49830.25;5018507;28;51181;-59
2021/11/17 08:07:39;;;;;;;;;32.00;30.50;;;;;-147.17;100.00;49826.31;5017055;28;54091;-60
2021/11/17 08:10:08;;;;;;;;;45.25;38.50;;;;;-147.17;100.00;49832.22;5018221;28;51063;-64
2021/11/17 08:12:34;;;;;;;;;33.00;29.00;;;;;-147.17;100.00;49836.16;5012195;28;51076;-61
2021/11/17 08:14:59;;;;;;;;;34.75;33.75;;;;;-147.17;100.00;49796.78;5012700;28;51175;-61
2021/11/17 08:17:24;;;;;;;;;38.50;34.75;;;;;-147.17;100.00;49816.47;5023264;28;51486;-60
2021/11/17 08:19:50;;;;;;;;;31.75;29.25;;;;;-147.17;100.00;49812.53;5024493;28;51021;-61
2021/11/17 08:22:16;;;;;;;;;36.75;32.25;;;;;-147.17;100.00;49818.44;5024515;28;51187;-60
2021/11/17 08:24:42;;;;;;;;;35.25;29.25;;;;;-147.17;100.00;49808.59;5025241;28;51162;-61
2021/11/17 08:27:18;;;;;;;;;36.00;32.75;;;;;-147.17;100.00;49826.31;5031473;28;51109;-60
2021/11/17 08:29:45;;;;;;;;;30.75;28.25;;;;;-147.17;100.00;49804.66;5031252;28;51060;-60
2021/11/17 08:32:11;;;;;;;;;37.75;32.00;;;;;-147.17;100.00;49798.75;5029851;28;50975;-60
2021/11/17 08:34:38;;;;;;;;;37.00;34.75;;;;;-147.17;100.00;49842.06;5031243;28;51286;-62
2021/11/17 08:37:04;;;;;;;;;50.50;39.00;;;;;-147.17;100.00;49820.41;5031110;28;52021;-60
2021/11/17 08:39:29;;;;;;;;;40.25;32.50;;;;;-147.17;100.00;49844.03;5029137;28;51003;-62
2021/11/17 08:41:55;;;;;;;;;30.50;29.50;;;;;-147.17;100.00;49838.13;5011051;28;51153;-63
2021/11/17 08:44:20;;;;;;;;;34.75;32.50;;;;;-147.17;100.00;49777.13;5031753;28;51207;-63
2021/11/17 08:46:45;;;;;;;;;32.50;30.25;;;;;-147.17;100.00;49826.31;5029721;28;51849;-62
2021/11/17 08:49:11;;;;;;;;;42.00;36.00;;;;;-147.17;100.00;49808.59;5031036;28;51006;-63
2021/11/17 08:51:36;;;;;;;;;37.00;31.75;;;;;-147.17;100.00;49816.47;5030988;28;51169;-62
2021/11/17 08:54:03;;;;;;;;;38.50;33.75;;;;;-147.17;100.00;49816.47;5031208;28;51141;-60
2021/11/17 08:56:30;;;;;;;;;36.00;31.25;;;;;-147.17;100.00;49781.06;5030967;28;51072;-64
2021/11/17 08:58:55;;;;;;;;;33.00;31.25;;;;;-147.17;100.00;49792.84;5026898;28;51173;-63
2021/11/17 09:01:20;;;;;;;;;41.50;35.25;;;;;-147.17;100.00;49824.34;5030293;28;51136;-63
2021/11/17 09:03:46;;;;;;;;;35.75;32.50;;;;;-147.17;100.00;49784.97;5034395;28;50884;-64
2021/11/17 09:06:13;;;;;;;;;35.25;32.75;;;;;-147.17;100.00;49812.53;5034307;28;50987;-64
2021/11/17 09:08:40;;;;;;;;;41.50;34.75;;;;;-147.17;100.00;49781.06;5034519;28;51076;-65
2021/11/17 09:11:12;;;;;;;;;36.25;31.75;;;;;-147.17;100.00;49830.25;5033977;28;51202;-64
2021/11/17 09:13:39;;;;;;;;;34.50;32.25;;;;;-147.17;100.00;49788.91;5034930;28;51160;-63
2021/11/17 09:16:06;;;;;;;;;36.50;33.25;;;;;-147.17;100.00;49812.53;5029172;28;52059;-65
2021/11/17 09:18:33;;;;;;;;;30.75;27.00;;;;;-147.17;100.00;49855.84;5034450;28;51236;-64
2021/11/17 09:21:00;;;;;;;;;33.50;30.75;;;;;-147.17;100.00;49783.03;5034288;28;51038;-64
2021/11/17 09:23:27;;;;;;;;;35.75;33.25;;;;;-147.17;100.00;49812.53;5034420;28;50945;-64
2021/11/17 09:25:53;;;;;;;;;39.25;36.25;;;;;-147.17;100.00;49796.78;5033496;28;51323;-64
2021/11/17 09:28:22;;;;;;;;;35.50;29.00;;;;;-147.17;100.00;49812.53;5034514;28;51208;-62
2021/11/17 09:30:48;;;;;;;;;38.00;34.50;;;;;-147.17;100.00;49771.22;5032305;28;51058;-62
2021/11/17 09:33:15;;;;;;;;;33.00;31.00;;;;;-147.17;100.00;49800.72;5030660;28;51239;-62
2021/11/17 09:35:41;;;;;;;;;30.50;29.75;;;;;-147.17;100.00;49792.84;5033538;28;52705;-63
2021/11/17 09:38:09;;;;;;;;;32.50;31.75;;;;;-147.17;100.00;49796.78;5033683;28;50944;-61
2021/11/17 09:40:57;;;;;;;;;32.25;31.75;;;;;-147.17;100.00;49767.28;5032226;28;51135;-61
2021/11/17 09:43:27;;;;;;;;;39.25;34.50;;;;;-147.17;100.00;49792.84;5033809;28;51314;-62
2021/11/17 09:45:55;;;;;;;;;33.25;32.25;;;;;-147.17;100.00;49812.53;5015909;28;51778;-63
2021/11/17 09:48:26;;;;;;;;;27.50;26.25;;;;;-147.17;100.00;49790.88;5027113;28;51184;-63
2021/11/17 09:50:59;;;;;;;;;35.50;33.25;;;;;-147.17;100.00;49771.22;5027208;28;51349;-63
2021/11/17 09:53:45;;;;;;;;;35.75;33.00;;;;;-147.17;100.00;49779.09;5032513;28;51329;-61
2021/11/17 09:56:31;;;;;;;;;39.00;33.00;;;;;-147.17;100.00;49784.97;5031283;28;52943;-62
2021/11/17 09:59:03;;;;;;;;;31.25;30.50;;;;;-147.17;100.00;49808.59;5046007;28;51158;-62
2021/11/17 10:01:40;;;;;;;;;30.50;29.00;;;;;-147.17;100.00;49820.41;5032677;28;51075;-61
2021/11/17 10:04:14;;;;;;;;;33.50;28.25;;;;;-147.17;100.00;49800.72;5032199;28;51069;-62
2021/11/17 10:08:05;;;;;;;;;40.50;31.50;;;;;-147.17;100.00;49800.72;5047770;28;52069;-63
2021/11/17 10:15:22;;;;;;;;;38.50;33.25;;;;;-147.17;100.00;49788.91;5033364;28;51256;-64
2021/11/17 10:17:54;;;;;;;;;38.25;33.25;;;;;-147.17;100.00;49777.13;5032700;28;51997;-63
2021/11/17 10:20:30;;;;;;;;;39.50;35.75;;;;;-147.17;100.00;49792.84;5032926;28;51076;-63
2021/11/17 10:23:04;;;;;;;;;30.75;28.75;;;;;-147.17;100.00;49836.16;5032361;28;51042;-62
2021/11/17 10:25:40;;;;;;;;;32.50;30.00;;;;;-147.17;100.00;49802.69;5032612;28;51342;-62
2021/11/17 10:28:05;;;;;;;;;36.25;32.25;;;;;-147.17;100.00;49816.47;5032743;28;51262;-63
2021/11/17 10:30:50;;;;;;;;;29.00;27.50;;;;;-147.17;100.00;49777.13;5031382;28;51165;-63
2021/11/17 10:33:50;;;;;;;;;36.50;32.50;;;;;-147.17;100.00;49804.66;5031115;28;51133;-62
2021/11/17 10:36:29;;;;;;;;;33.50;31.50;;;;;-147.17;100.00;49781.06;5019399;28;51078;-62
2021/11/17 10:39:20;;;;;;;;;38.25;32.25;;;;;-147.17;100.00;49773.19;5035716;28;52105;-63
2021/11/17 10:41:56;;;;;;;;;34.25;31.00;;;;;-147.17;100.00;49814.50;5023587;28;51009;-63
2021/11/17 10:44:39;;;;;;;;;36.25;32.25;;;;;-147.17;100.00;49792.84;5017352;28;50952;-62
2021/11/17 10:47:15;;;;;;;;;36.50;31.75;;;;;-147.17;100.00;49753.50;5031580;28;51371;-63
2021/11/17 10:49:43;;;;;;;;;32.00;30.00;;;;;-147.17;100.00;49757.44;5032308;28;51054;-63
2021/11/17 10:52:11;;;;;;;;;30.25;29.25;;;;;-147.17;100.00;49761.38;5031005;28;51094;-62
2021/11/17 10:54:51;;;;;;;;;30.25;29.00;;;;;-147.17;100.00;49759.41;5032455;28;51061;-62
2021/11/17 10:57:23;;;;;;;;;36.25;31.00;;;;;-147.17;100.00;49753.50;5031618;28;51468;-63
2021/11/17 10:59:51;;;;;;;;;33.75;29.75;;;;;-147.17;100.00;49784.97;5032185;28;51108;-62
2021/11/17 11:02:17;;;;;;;;;27.50;23.75;;;;;-147.17;100.00;49808.59;5028487;28;51065;-61
2021/11/17 11:04:54;;;;;;;;;30.00;29.00;;;;;-147.17;100.00;49784.97;5020251;28;51223;-63
2021/11/17 11:07:31;;;;;;;;;27.25;26.00;;;;;-147.17;100.00;49863.72;5044650;28;51174;-62
2021/11/17 11:10:08;;;;;;;;;29.75;28.00;;;;;-147.17;100.00;49820.41;5028630;28;51888;-62
2021/11/17 11:12:34;;;;;;;;;36.50;30.00;;;;;-147.17;100.00;49814.50;5047229;28;51073;-63
2021/11/17 11:14:59;;;;;;;;;28.75;27.00;;;;;-147.17;100.00;49812.53;5032235;28;51049;-61
2021/11/17 11:17:27;;;;;;;;;29.50;25.75;;;;;-147.17;100.00;49830.25;5032062;28;51171;-62
2021/11/17 11:20:20;;;;;;;;;31.00;29.00;;;;;-147.17;100.00;49820.41;5031788;28;51834;-62
2021/11/17 11:23:04;;;;;;;;;26.25;23.75;;;;;-147.17;100.00;49853.88;5013296;28;51095;-61
2021/11/17 11:25:58;;;;;;;;;32.25;25.75;;;;;-147.17;100.00;49836.16;5031703;28;50972;-63
2021/11/17 11:28:23;;;;;;;;;27.75;25.00;;;;;-147.17;100.00;49851.91;5031613;28;51112;-63
2021/11/17 11:31:03;;;;;;;;;27.75;24.00;;;;;-147.17;100.00;49844.03;5031571;28;51818;-62
2021/11/17 11:33:40;;;;;;;;;30.75;27.00;;;;;-147.17;100.00;49824.34;5015999;28;51185;-63
2021/11/17 11:36:11;;;;;;;;;24.25;23.75;;;;;-147.17;100.00;49804.66;5031880;28;51144;-62
2021/11/17 11:38:41;;;;;;;;;32.25;30.50;;;;;-147.17;100.00;49810.56;5031871;28;51244;-63
2021/11/17 11:41:10;;;;;;;;;26.75;24.25;;;;;-147.17;100.00;49765.31;5031216;28;51813;-62
2021/11/17 11:43:39;;;;;;;;;33.75;31.75;;;;;-147.17;100.00;49834.19;5030227;28;50999;-62
2021/11/17 11:46:33;;;;;;;;;26.25;25.50;;;;;-147.17;100.00;49808.59;5031508;28;51090;-62
2021/11/17 11:49:05;;;;;;;;;27.75;26.25;;;;;-147.17;100.00;49806.63;5030235;28;51154;-62
2021/11/17 11:51:48;;;;;;;;;27.75;25.75;;;;;-147.17;100.00;49812.53;5025317;28;51862;-63
2021/11/17 11:54:19;;;;;;;;;32.50;27.75;;;;;-147.17;100.00;49828.28;5027074;28;51026;-63
2021/11/17 11:57:02;;;;;;;;;30.00;30.00;;;;;-147.17;100.00;49802.69;5031385;28;51189;-63
2021/11/17 11:59:30;;;;;;;;;31.25;29.00;;;;;-147.17;100.00;49763.34;5032873;28;51065;-63
2021/11/17 12:02:12;;;;;;;;;34.00;30.00;;;;;-147.17;100.00;49769.25;5031911;28;52197;-60
2021/11/17 12:05:02;;;;;;;;;28.75;25.75;;;;;-147.17;100.00;49749.56;5018801;28;51079;-63
2021/11/17 12:07:39;;;;;;;;;33.50;30.75;;;;;-147.17;100.00;49749.56;5031242;28;51385;-62
2021/11/17 12:10:24;;;;;;;;;25.75;25.25;;;;;-147.17;100.00;49733.81;5030680;28;50968;-62
2021/11/17 12:12:50;;;;;;;;;27.25;25.50;;;;;-147.17;100.00;49704.28;5028401;28;53021;-64
2021/11/17 12:15:55;;;;;;;;;27.75;27.50;;;;;-147.17;100.00;49720.03;5031019;28;51205;-62
2021/11/17 12:18:21;;;;;;;;;25.75;24.50;;;;;-147.17;100.00;49737.75;5031135;28;51022;-62
2021/11/17 12:20:58;;;;;;;;;27.25;26.00;;;;;-147.17;100.00;49753.50;5030015;28;51486;-63
2021/11/17 12:23:30;;;;;;;;;26.50;25.00;;;;;-147.17;100.00;49704.28;5031280;28;51042;-61
2021/11/17 12:26:16;;;;;;;;;32.75;31.00;;;;;-147.17;100.00;49741.69;5030712;28;51036;-62
2021/11/17 12:28:57;;;;;;;;;29.75;27.50;;;;;-147.17;100.00;49710.19;5031890;28;51035;-63
2021/11/17 12:31:26;;;;;;;;;27.25;24.25;;;;;-147.17;100.00;49710.19;5029890;28;51062;-63
2021/11/17 12:33:57;;;;;;;;;26.25;24.00;;;;;-147.17;100.00;49761.38;5043369;28;53061;-65
2021/11/17 12:36:34;;;;;;;;;27.50;26.25;;;;;-147.17;100.00;49735.78;5023784;28;51172;-62
2021/11/17 12:39:17;;;;;;;;;27.00;25.75;;;;;-147.17;100.00;49725.94;5034190;28;51069;-63
2021/11/17 12:41:43;;;;;;;;;23.00;22.00;;;;;-147.17;100.00;49784.97;5034614;28;51284;-62
2021/11/17 12:44:08;;;;;;;;;29.00;26.25;;;;;-147.17;100.00;49714.13;5034283;28;52058;-64
2021/11/17 12:46:37;;;;;;;;;20.00;20.00;;;;;-147.17;100.00;49723.97;5034342;28;51060;-65
2021/11/17 12:49:14;;;;;;;;;21.75;21.50;;;;;-147.17;100.00;49733.81;5034008;28;52045;-62
2021/11/17 12:51:55;;;;;;;;;22.33;22.00;;;;;-147.17;100.00;49722.00;5029954;28;51388;-62
2021/11/17 12:54:47;;;;;;;;;25.75;24.75;;;;;-147.17;100.00;49716.09;5033570;28;51842;-66
2021/11/17 12:57:20;;;;;;;;;22.33;20.00;;;;;-147.17;100.00;49769.25;5034049;28;51180;-62
2021/11/17 12:59:49;;;;;;;;;19.00;17.00;;;;;-147.17;100.00;49716.09;5034358;28;51110;-64
2021/11/17 13:02:21;;;;;;;;;14.00;14.00;;;;;-147.17;100.00;49745.63;5044632;28;50943;-62
2021/11/17 13:04:50;;;;;;;;;17.00;16.67;;;;;-147.17;100.00;49731.84;5033661;28;51108;-62
2021/11/17 13:07:47;;;;;;;;;16.67;16.33;;;;;-147.17;100.00;49716.09;5034187;28;50939;-63
2021/11/17 13:10:57;;;;;;;;;16.00;15.00;;;;;-147.17;100.00;49694.44;5033642;28;51228;-62
2021/11/17 13:13:38;;;;;;;;;13.67;13.33;;;;;-147.17;100.00;49698.38;4991669;28;51110;-62
2021/11/17 13:16:12;;;;;;;;;14.33;14.33;;;;;-147.17;100.00;49745.63;4990531;28;51209;-62
2021/11/17 13:18:44;;;;;;;;;12.33;11.00;;;;;-147.17;100.00;49741.69;5019723;28;51292;-63
2021/11/17 13:21:23;;;;;;;;;9.67;9.33;;;;;-147.17;100.00;49708.22;5031215;28;51213;-63
2021/11/17 13:24:24;;;;;;;;;12.00;11.00;;;;;-147.17;100.00;49653.13;5029946;28;51388;-63
2021/11/17 13:27:07;;;;;;;;;14.00;13.00;;;;;-147.17;100.00;49723.97;5027504;28;50968;-62
2021/11/17 13:29:54;;;;;;;;;13.33;13.00;;;;;-147.17;100.00;49702.31;5028373;28;51043;-62
2021/11/17 13:32:19;;;;;;;;;13.00;12.33;;;;;-147.17;100.00;49698.38;5027717;28;51108;-63
2021/11/17 13:34:48;;;;;;;;;11.67;11.67;;;;;-147.17;100.00;49712.16;5033418;28;50939;-61
2021/11/17 13:37:26;;;;;;;;;11.67;10.33;;;;;-147.17;100.00;49765.31;5033184;28;51006;-62
2021/11/17 13:39:57;;;;;;;;;8.33;8.33;;;;;-147.17;100.00;49749.56;5045896;28;51147;-63
2021/11/17 13:42:25;;;;;;;;;10.67;9.33;;;;;-147.17;100.00;49714.13;5033697;28;51146;-63
2021/11/17 13:44:53;;;;;;;;;9.67;9.33;;;;;-147.17;100.00;49741.69;5033675;28;51135;-63
2021/11/17 13:47:20;;;;;;;;;15.00;12.67;;;;;-147.17;100.00;49714.13;5033174;28;51905;-63
2021/11/17 13:49:51;;;;;;;;;10.00;9.00;;;;;-147.17;100.00;49710.19;5032178;28;50978;-62
2021/11/17 13:52:21;;;;;;;;;14.00;14.00;;;;;-147.17;100.00;49733.81;5031389;28;50957;-63
2021/11/17 13:54:46;;;;;;;;;10.00;10.00;;;;;-147.17;100.00;49690.50;5020070;28;51277;-63
2021/11/17 13:57:13;;;;;;;;;10.33;9.33;;;;;-147.17;100.00;49722.00;5031621;28;51472;-63
2021/11/17 13:59:39;;;;;;;;;8.33;8.00;;;;;-147.17;100.00;49733.81;5032130;28;51121;-63
2021/11/17 14:02:07;;;;;;;;;7.67;7.67;;;;;-147.17;100.00;49676.72;5031752;28;51003;-63
2021/11/17 14:04:33;;;;;;;;;8.00;8.00;;;;;-147.17;100.00;49702.31;5031688;28;50970;-62